Time;durP1;ratioP1;P1;durP2;ratioP2;P2;SDS_P1;SDS_P2;PMS_P1;PMS_P2;Temp;Humidity;BMP_temperature;BMP_pressure;BME280_temperature;BME280_humidity;BME280_pressure;Samples;Min_cycle;Max_cycle;Signal;HPM_P1;HPM_P2
2022/07/16 00:01:23;;;;;;;274.93;154.23;;;;;;;;;;5018310;28;20225;-48
2022/07/16 00:03:56;;;;;;;290.43;159.87;;;;;;;;;;5017933;28;20549;-48
2022/07/16 00:06:23;;;;;;;287.50;156.20;;;;;;;;;;5016614;28;20208;-48
2022/07/16 00:08:49;;;;;;;272.27;153.77;;;;;;;;;;5018686;28;20180;-48
2022/07/16 00:11:15;;;;;;;258.80;146.93;;;;;;;;;;5018238;28;20224;-48
2022/07/16 00:13:42;;;;;;;284.80;157.77;;;;;;;;;;5018230;28;20543;-49
2022/07/16 00:16:08;;;;;;;291.07;158.90;;;;;;;;;;5017805;28;20292;-48
2022/07/16 00:21:18;;;;;;;276.97;154.27;;;;;;;;;;5018805;28;20188;-48
2022/07/16 00:23:44;;;;;;;273.57;151.73;;;;;;;;;;5016911;28;20213;-49
2022/07/16 00:26:10;;;;;;;262.97;148.97;;;;;;;;;;5017781;28;20232;-49
2022/07/16 00:28:36;;;;;;;280.95;155.35;;;;;;;;;;5017887;28;20542;-49
2022/07/16 00:31:02;;;;;;;284.10;159.93;;;;;;;;;;5017605;28;20686;-49
2022/07/16 00:33:28;;;;;;;282.57;156.37;;;;;;;;;;5016484;28;20189;-48
2022/07/16 00:35:54;;;;;;;306.03;166.60;;;;;;;;;;5017655;28;20173;-49
2022/07/16 00:38:20;;;;;;;277.07;154.33;;;;;;;;;;5017779;28;20270;-48
2022/07/16 00:40:46;;;;;;;293.77;159.37;;;;;;;;;;5016120;28;20243;-48
2022/07/16 00:43:13;;;;;;;286.60;157.53;;;;;;;;;;5017736;28;20665;-49
2022/07/16 00:45:39;;;;;;;270.37;150.53;;;;;;;;;;5017637;28;20180;-49
2022/07/16 00:48:06;;;;;;;276.47;153.17;;;;;;;;;;5017758;28;20199;-48
2022/07/16 00:50:32;;;;;;;277.53;151.07;;;;;;;;;;5017842;28;20232;-48
2022/07/16 00:52:59;;;;;;;277.97;151.93;;;;;;;;;;5017607;28;20685;-48
2022/07/16 00:55:25;;;;;;;274.13;151.87;;;;;;;;;;5017689;28;20228;-48
2022/07/16 00:57:51;;;;;;;274.10;148.60;;;;;;;;;;5017661;28;20247;-49
2022/07/16 01:00:17;;;;;;;275.13;152.13;;;;;;;;;;5017982;28;20181;-48
2022/07/16 01:02:43;;;;;;;289.63;157.60;;;;;;;;;;5017856;28;20220;-48
2022/07/16 01:05:09;;;;;;;290.80;161.30;;;;;;;;;;5017499;28;20228;-49
2022/07/16 01:07:35;;;;;;;256.77;150.30;;;;;;;;;;5017483;28;20298;-48
2022/07/16 01:10:03;;;;;;;275.07;151.67;;;;;;;;;;5017516;28;20225;-48
2022/07/16 01:12:29;;;;;;;266.30;150.97;;;;;;;;;;5017344;28;20176;-48
2022/07/16 01:14:56;;;;;;;264.63;149.53;;;;;;;;;;5017791;28;20177;-48
2022/07/16 01:17:22;;;;;;;273.93;152.50;;;;;;;;;;5017180;28;20232;-48
2022/07/16 01:19:48;;;;;;;268.83;150.60;;;;;;;;;;5017678;28;20232;-49
2022/07/16 01:22:18;;;;;;;278.57;155.50;;;;;;;;;;5017283;28;20225;-48
2022/07/16 01:24:44;;;;;;;246.53;141.83;;;;;;;;;;5017208;28;20977;-48
2022/07/16 01:27:10;;;;;;;275.07;152.03;;;;;;;;;;5017831;28;20193;-48
2022/07/16 01:29:36;;;;;;;280.77;158.37;;;;;;;;;;5017516;28;20224;-48
2022/07/16 01:32:02;;;;;;;291.87;159.33;;;;;;;;;;5016985;28;20581;-48
2022/07/16 01:34:28;;;;;;;268.83;150.47;;;;;;;;;;5017502;28;20236;-48
2022/07/16 01:36:57;;;;;;;266.73;149.00;;;;;;;;;;5017146;28;20298;-49
2022/07/16 01:39:24;;;;;;;267.30;149.60;;;;;;;;;;5017347;28;20173;-48
2022/07/16 01:41:57;;;;;;;274.10;153.47;;;;;;;;;;5017577;28;20196;-48
2022/07/16 01:44:24;;;;;;;281.50;159.23;;;;;;;;;;5017230;28;20749;-48
2022/07/16 01:46:51;;;;;;;272.30;154.97;;;;;;;;;;5017202;28;20228;-48
2022/07/16 01:49:17;;;;;;;265.47;147.97;;;;;;;;;;5019031;28;20279;-48
2022/07/16 01:51:43;;;;;;;244.77;142.67;;;;;;;;;;5020415;28;20851;-48
2022/07/16 01:54:09;;;;;;;271.67;151.97;;;;;;;;;;5021218;28;20181;-48
2022/07/16 01:56:35;;;;;;;268.93;151.20;;;;;;;;;;5020846;28;20561;-49
2022/07/16 01:59:01;;;;;;;259.07;144.90;;;;;;;;;;5020876;28;20609;-49
2022/07/16 02:01:26;;;;;;;269.00;149.93;;;;;;;;;;5020317;28;20220;-48
2022/07/16 02:03:52;;;;;;;257.93;143.77;;;;;;;;;;5020900;28;20312;-48
2022/07/16 02:06:18;;;;;;;267.47;150.43;;;;;;;;;;5020871;28;20496;-48
2022/07/16 02:08:46;;;;;;;266.03;148.60;;;;;;;;;;5020635;28;20208;-49
2022/07/16 02:11:11;;;;;;;269.63;149.97;;;;;;;;;;5020249;28;20642;-48
2022/07/16 02:13:38;;;;;;;263.17;148.60;;;;;;;;;;5020589;28;20224;-49
2022/07/16 02:16:04;;;;;;;266.87;148.53;;;;;;;;;;5020231;28;20216;-48
2022/07/16 02:18:30;;;;;;;272.87;153.40;;;;;;;;;;5020240;28;20165;-48
2022/07/16 02:20:56;;;;;;;266.77;153.20;;;;;;;;;;5020831;28;20272;-48
2022/07/16 02:23:22;;;;;;;267.73;152.90;;;;;;;;;;5020309;28;20240;-48
2022/07/16 02:25:48;;;;;;;272.40;151.13;;;;;;;;;;5020019;28;20611;-48
2022/07/16 02:28:14;;;;;;;254.43;144.33;;;;;;;;;;5019889;28;20228;-48
2022/07/16 02:30:41;;;;;;;277.20;157.70;;;;;;;;;;5019741;28;20286;-48
2022/07/16 02:33:08;;;;;;;241.23;139.60;;;;;;;;;;5020793;28;20169;-49
2022/07/16 02:35:34;;;;;;;264.00;140.13;;;;;;;;;;5019863;28;20220;-48
2022/07/16 02:38:00;;;;;;;268.73;141.67;;;;;;;;;;5018242;28;20236;-48
2022/07/16 02:40:27;;;;;;;284.97;148.27;;;;;;;;;;5017687;28;20220;-48
2022/07/16 02:42:53;;;;;;;255.07;135.87;;;;;;;;;;5019471;28;20217;-48
2022/07/16 02:45:19;;;;;;;242.77;135.30;;;;;;;;;;5020292;28;20177;-49
2022/07/16 02:47:45;;;;;;;233.80;130.13;;;;;;;;;;5019721;28;20262;-48
2022/07/16 02:50:11;;;;;;;240.03;133.13;;;;;;;;;;5019538;28;20225;-49
2022/07/16 02:52:37;;;;;;;252.60;136.63;;;;;;;;;;5019989;28;20213;-49
2022/07/16 02:55:06;;;;;;;254.20;136.87;;;;;;;;;;5019450;28;20216;-48
2022/07/16 02:57:32;;;;;;;247.93;134.97;;;;;;;;;;5019760;28;20192;-48
2022/07/16 02:59:58;;;;;;;259.37;141.47;;;;;;;;;;5019451;28;20176;-48
2022/07/16 03:02:24;;;;;;;264.97;142.20;;;;;;;;;;5019448;28;20535;-48
2022/07/16 03:04:50;;;;;;;251.00;133.77;;;;;;;;;;5019483;28;20225;-49
2022/07/16 03:07:16;;;;;;;250.17;136.63;;;;;;;;;;5019251;28;20220;-48
2022/07/16 03:09:42;;;;;;;235.63;132.47;;;;;;;;;;5019666;28;20554;-48
2022/07/16 03:12:08;;;;;;;263.07;139.37;;;;;;;;;;5019884;28;20660;-48
2022/07/16 03:14:34;;;;;;;256.00;137.00;;;;;;;;;;5019149;28;20271;-48
2022/07/16 03:17:00;;;;;;;248.17;132.53;;;;;;;;;;5019147;28;20283;-48
2022/07/16 03:19:26;;;;;;;243.97;131.47;;;;;;;;;;5018969;28;20239;-48
2022/07/16 03:21:51;;;;;;;235.47;131.70;;;;;;;;;;5019062;28;20224;-48
2022/07/16 03:24:17;;;;;;;264.07;141.13;;;;;;;;;;5019446;28;20231;-48
2022/07/16 03:26:43;;;;;;;233.73;127.80;;;;;;;;;;5019033;28;20220;-48
2022/07/16 03:29:09;;;;;;;245.10;132.47;;;;;;;;;;5018966;28;20235;-48
2022/07/16 03:31:35;;;;;;;249.83;134.63;;;;;;;;;;5018800;28;20675;-48
2022/07/16 03:34:01;;;;;;;221.27;124.33;;;;;;;;;;5017323;28;20220;-48
2022/07/16 03:36:27;;;;;;;242.63;131.03;;;;;;;;;;5017155;28;20204;-48
2022/07/16 03:39:01;;;;;;;269.87;142.17;;;;;;;;;;5018690;28;20169;-48
2022/07/16 03:41:27;;;;;;;278.27;144.27;;;;;;;;;;5014916;28;20227;-48
2022/07/16 03:43:53;;;;;;;263.67;141.53;;;;;;;;;;5017064;28;20243;-48
2022/07/16 03:46:19;;;;;;;238.43;130.50;;;;;;;;;;5018531;28;20558;-48
2022/07/16 03:48:45;;;;;;;207.40;121.93;;;;;;;;;;5018405;28;20212;-48
2022/07/16 03:51:11;;;;;;;211.20;121.93;;;;;;;;;;5019044;28;20630;-48
2022/07/16 03:53:38;;;;;;;228.00;127.27;;;;;;;;;;5018342;28;20243;-48
2022/07/16 03:56:04;;;;;;;254.20;137.53;;;;;;;;;;5018256;28;20228;-48
2022/07/16 03:58:30;;;;;;;239.27;131.73;;;;;;;;;;5018626;28;20617;-48
2022/07/16 04:00:56;;;;;;;237.77;132.10;;;;;;;;;;5018202;28;20654;-48
2022/07/16 04:03:22;;;;;;;222.50;130.03;;;;;;;;;;5018576;28;20670;-48
2022/07/16 04:05:48;;;;;;;241.53;134.50;;;;;;;;;;5017030;28;20181;-48
2022/07/16 04:08:14;;;;;;;229.60;132.27;;;;;;;;;;5018365;28;20476;-48
2022/07/16 04:10:40;;;;;;;254.20;139.17;;;;;;;;;;5018114;28;20221;-48
2022/07/16 04:13:06;;;;;;;231.90;130.67;;;;;;;;;;5017948;28;20220;-48
2022/07/16 04:15:32;;;;;;;237.93;132.60;;;;;;;;;;5018267;28;20192;-48
2022/07/16 04:17:58;;;;;;;246.73;136.87;;;;;;;;;;5018561;28;20650;-48
2022/07/16 04:20:24;;;;;;;239.07;132.90;;;;;;;;;;5018217;28;20213;-48
2022/07/16 04:22:50;;;;;;;246.43;133.50;;;;;;;;;;5016254;28;20231;-48
2022/07/16 04:25:16;;;;;;;244.50;135.40;;;;;;;;;;5017950;28;20304;-48
2022/07/16 04:27:43;;;;;;;237.50;133.10;;;;;;;;;;5016421;28;20236;-48
2022/07/16 04:30:09;;;;;;;233.63;130.30;;;;;;;;;;5018216;28;20241;-48
2022/07/16 04:32:37;;;;;;;243.00;132.50;;;;;;;;;;5017718;28;20232;-48
2022/07/16 04:35:03;;;;;;;262.40;141.83;;;;;;;;;;5017902;28;20225;-48
2022/07/16 04:37:29;;;;;;;250.23;135.03;;;;;;;;;;5017733;28;20228;-49
2022/07/16 04:39:55;;;;;;;252.07;137.10;;;;;;;;;;5017120;28;20217;-48
2022/07/16 04:42:21;;;;;;;230.03;134.30;;;;;;;;;;5016394;28;20166;-48
2022/07/16 04:44:47;;;;;;;243.47;130.07;;;;;;;;;;5017109;28;20173;-48
2022/07/16 04:47:13;;;;;;;239.30;132.03;;;;;;;;;;5017526;28;20224;-48
2022/07/16 04:49:39;;;;;;;240.17;131.87;;;;;;;;;;5017758;28;20231;-48
2022/07/16 04:52:05;;;;;;;240.53;134.10;;;;;;;;;;5017866;28;20268;-48
2022/07/16 04:54:31;;;;;;;252.37;139.17;;;;;;;;;;5017661;28;20188;-48
2022/07/16 04:56:57;;;;;;;242.07;132.60;;;;;;;;;;5018054;28;20193;-48
2022/07/16 04:59:23;;;;;;;235.60;133.27;;;;;;;;;;5017654;28;20220;-48
2022/07/16 05:01:49;;;;;;;221.57;125.60;;;;;;;;;;5017669;28;20274;-48
2022/07/16 05:04:15;;;;;;;232.77;128.40;;;;;;;;;;5017821;28;20220;-48
2022/07/16 05:06:41;;;;;;;238.53;134.20;;;;;;;;;;5017466;28;20227;-48
2022/07/16 05:09:07;;;;;;;234.70;131.47;;;;;;;;;;5018499;28;20506;-48
2022/07/16 05:11:33;;;;;;;246.60;135.25;;;;;;;;;;5017343;28;20212;-48
2022/07/16 05:13:59;;;;;;;222.33;125.83;;;;;;;;;;5017802;28;20216;-48
2022/07/16 05:16:25;;;;;;;253.03;139.93;;;;;;;;;;5017287;28;20232;-48
2022/07/16 05:18:51;;;;;;;260.23;140.30;;;;;;;;;;5017574;28;20217;-48
2022/07/16 05:21:17;;;;;;;270.70;144.00;;;;;;;;;;5017086;28;20236;-48
2022/07/16 05:23:43;;;;;;;255.57;139.70;;;;;;;;;;5017651;28;20217;-48
2022/07/16 05:26:09;;;;;;;226.90;130.77;;;;;;;;;;5019631;28;20566;-48
2022/07/16 05:28:35;;;;;;;251.97;137.33;;;;;;;;;;5021109;28;20231;-48
2022/07/16 05:31:01;;;;;;;265.20;145.70;;;;;;;;;;5020746;28;20216;-48
2022/07/16 05:33:27;;;;;;;250.50;139.47;;;;;;;;;;5019553;28;20192;-48
2022/07/16 05:35:53;;;;;;;245.13;137.53;;;;;;;;;;5021550;28;20256;-48
2022/07/16 05:38:19;;;;;;;253.63;146.13;;;;;;;;;;5021067;28;20224;-48
2022/07/16 05:40:45;;;;;;;260.30;151.80;;;;;;;;;;5020829;28;20223;-50
2022/07/16 05:43:11;;;;;;;224.90;138.13;;;;;;;;;;5020955;28;20213;-50
2022/07/16 05:45:37;;;;;;;242.87;143.80;;;;;;;;;;5020630;28;20629;-50
2022/07/16 05:48:04;;;;;;;206.70;128.07;;;;;;;;;;5021971;28;20189;-50
2022/07/16 05:50:29;;;;;;;210.60;132.67;;;;;;;;;;5021022;28;20225;-50
2022/07/16 05:52:56;;;;;;;241.47;141.07;;;;;;;;;;5020872;28;20650;-50
2022/07/16 05:55:21;;;;;;;244.47;143.60;;;;;;;;;;5020852;28;20209;-50
2022/07/16 05:57:47;;;;;;;256.50;148.13;;;;;;;;;;5020540;28;20224;-49
2022/07/16 06:00:13;;;;;;;237.77;133.47;;;;;;;;;;5020929;28;20219;-49
2022/07/16 06:02:40;;;;;;;290.63;156.87;;;;;;;;;;5018577;28;20569;-49
2022/07/16 06:05:07;;;;;;;254.13;141.03;;;;;;;;;;5020271;28;20660;-49
2022/07/16 06:07:33;;;;;;;234.17;131.03;;;;;;;;;;5020373;28;20229;-48
2022/07/16 06:09:59;;;;;;;235.50;134.10;;;;;;;;;;5020618;28;20231;-49
2022/07/16 06:12:25;;;;;;;224.60;130.00;;;;;;;;;;5020554;28;20169;-49
2022/07/16 06:14:50;;;;;;;240.27;132.53;;;;;;;;;;5020940;28;20172;-49
2022/07/16 06:17:17;;;;;;;255.37;137.27;;;;;;;;;;5018772;28;20235;-49
2022/07/16 06:19:43;;;;;;;246.97;136.17;;;;;;;;;;5019474;28;20669;-49
2022/07/16 06:22:09;;;;;;;213.10;128.57;;;;;;;;;;5019955;28;20217;-49
2022/07/16 06:24:35;;;;;;;235.00;137.33;;;;;;;;;;5020157;28;20792;-49
2022/07/16 06:27:01;;;;;;;209.90;125.10;;;;;;;;;;5020450;28;20185;-49
2022/07/16 06:29:27;;;;;;;229.47;135.13;;;;;;;;;;5020580;28;20287;-49
2022/07/16 06:31:53;;;;;;;235.13;136.33;;;;;;;;;;5019945;28;20221;-49
2022/07/16 06:34:19;;;;;;;233.37;136.10;;;;;;;;;;5019483;28;20224;-49
2022/07/16 06:36:45;;;;;;;253.40;144.57;;;;;;;;;;5019896;28;20685;-49
2022/07/16 06:39:11;;;;;;;235.57;139.33;;;;;;;;;;5020408;28;20181;-48
2022/07/16 06:41:37;;;;;;;245.03;134.43;;;;;;;;;;5019904;28;20213;-49
2022/07/16 06:44:05;;;;;;;244.80;135.07;;;;;;;;;;5019385;28;20685;-48
2022/07/16 06:46:31;;;;;;;229.83;131.40;;;;;;;;;;5018107;28;20550;-49
2022/07/16 06:48:57;;;;;;;227.97;133.23;;;;;;;;;;5019495;28;20216;-49
2022/07/16 06:51:22;;;;;;;252.43;141.70;;;;;;;;;;5019366;28;20498;-49
2022/07/16 06:53:48;;;;;;;251.17;140.43;;;;;;;;;;5020167;28;20607;-49
2022/07/16 06:56:14;;;;;;;237.00;131.37;;;;;;;;;;5019416;28;20228;-48
2022/07/16 06:58:40;;;;;;;250.17;134.43;;;;;;;;;;5019388;28;20290;-48
2022/07/16 07:01:08;;;;;;;245.80;134.97;;;;;;;;;;5019294;28;20652;-48
2022/07/16 07:03:34;;;;;;;247.10;136.90;;;;;;;;;;5019234;28;20219;-48
2022/07/16 07:05:59;;;;;;;253.17;143.07;;;;;;;;;;5020112;28;20181;-48
2022/07/16 07:08:25;;;;;;;236.50;143.33;;;;;;;;;;5019729;28;20450;-48
2022/07/16 07:10:51;;;;;;;244.80;136.77;;;;;;;;;;5019283;28;20217;-48
2022/07/16 07:13:17;;;;;;;251.00;142.30;;;;;;;;;;5019421;28;20639;-48
2022/07/16 07:15:43;;;;;;;261.53;146.47;;;;;;;;;;5018993;28;20213;-48
2022/07/16 07:18:09;;;;;;;265.33;146.53;;;;;;;;;;5019569;28;20197;-48
2022/07/16 07:20:35;;;;;;;231.70;137.80;;;;;;;;;;5019432;28;20224;-48
2022/07/16 07:23:01;;;;;;;243.70;137.80;;;;;;;;;;5018975;28;20271;-48
2022/07/16 07:25:27;;;;;;;247.77;138.55;;;;;;;;;;5018858;28;20275;-48
2022/07/16 07:27:53;;;;;;;267.40;150.87;;;;;;;;;;5018691;28;20221;-48
2022/07/16 07:30:19;;;;;;;248.40;143.17;;;;;;;;;;5019160;28;20164;-50
2022/07/16 07:32:45;;;;;;;253.32;145.13;;;;;;;;;;5018750;28;20538;-50
2022/07/16 07:35:11;;;;;;;250.97;144.40;;;;;;;;;;5018874;28;20228;-50
2022/07/16 07:37:37;;;;;;;228.27;140.77;;;;;;;;;;5018760;28;20613;-50
2022/07/16 07:40:04;;;;;;;249.27;148.03;;;;;;;;;;5018679;28;20877;-50
2022/07/16 07:42:30;;;;;;;267.63;148.27;;;;;;;;;;5017659;28;20634;-50
2022/07/16 07:44:56;;;;;;;250.17;140.00;;;;;;;;;;5018664;28;20220;-50
2022/07/16 07:47:22;;;;;;;301.13;162.57;;;;;;;;;;5016602;28;20224;-49
2022/07/16 07:49:48;;;;;;;223.67;135.20;;;;;;;;;;5017190;28;20219;-49
2022/07/16 07:52:14;;;;;;;243.47;139.10;;;;;;;;;;5014637;28;20268;-50
2022/07/16 07:54:40;;;;;;;268.30;143.13;;;;;;;;;;5015992;28;20672;-50
2022/07/16 07:57:06;;;;;;;268.50;146.50;;;;;;;;;;5015063;28;20185;-51
2022/07/16 07:59:32;;;;;;;258.33;142.97;;;;;;;;;;5015109;28;20228;-50
2022/07/16 08:01:59;;;;;;;247.77;133.27;;;;;;;;;;5014776;28;20221;-50
2022/07/16 08:04:25;;;;;;;295.63;152.90;;;;;;;;;;5012928;28;20254;-51
2022/07/16 08:06:51;;;;;;;260.73;145.40;;;;;;;;;;5013749;28;20335;-51
2022/07/16 08:09:17;;;;;;;259.70;145.10;;;;;;;;;;5015408;28;20196;-50
2022/07/16 08:11:43;;;;;;;263.20;138.40;;;;;;;;;;5014734;28;20796;-50
2022/07/16 08:14:09;;;;;;;246.93;138.13;;;;;;;;;;5014739;28;20232;-50
2022/07/16 08:16:35;;;;;;;280.97;146.23;;;;;;;;;;5014129;28;20224;-51
2022/07/16 08:19:01;;;;;;;256.10;139.17;;;;;;;;;;5014633;28;20228;-50
2022/07/16 08:21:27;;;;;;;268.30;145.87;;;;;;;;;;5014991;28;20259;-50
2022/07/16 08:26:38;;;;;;;264.73;142.13;;;;;;;;;;5014086;28;20236;-51
2022/07/16 08:29:04;;;;;;;273.03;150.13;;;;;;;;;;5011864;28;20232;-50
2022/07/16 08:31:30;;;;;;;258.10;138.43;;;;;;;;;;5013842;28;20224;-50
2022/07/16 08:33:56;;;;;;;250.00;139.80;;;;;;;;;;5014110;28;20220;-50
2022/07/16 08:36:22;;;;;;;288.50;160.90;;;;;;;;;;5014087;28;20189;-50
2022/07/16 08:38:48;;;;;;;277.47;152.40;;;;;;;;;;5014104;28;20220;-50
2022/07/16 08:41:15;;;;;;;280.83;155.10;;;;;;;;;;5002106;28;20218;-48
2022/07/16 08:43:41;;;;;;;290.20;162.23;;;;;;;;;;4974851;28;20239;-47
2022/07/16 08:46:07;;;;;;;290.70;158.53;;;;;;;;;;4974941;28;20214;-47
2022/07/16 08:48:35;;;;;;;290.57;162.30;;;;;;;;;;4974073;28;20170;-47
2022/07/16 08:51:01;;;;;;;262.70;146.40;;;;;;;;;;4973832;28;20213;-47
2022/07/16 08:53:29;;;;;;;278.40;150.30;;;;;;;;;;4974794;28;20218;-48
2022/07/16 08:55:55;;;;;;;277.37;150.00;;;;;;;;;;4974467;28;20221;-48
2022/07/16 08:58:21;;;;;;;280.03;154.37;;;;;;;;;;4977083;28;20224;-48
2022/07/16 09:00:47;;;;;;;282.30;157.50;;;;;;;;;;4978426;28;20224;-48
2022/07/16 09:03:13;;;;;;;281.33;152.30;;;;;;;;;;5014611;28;20181;-50
2022/07/16 09:05:40;;;;;;;277.80;164.60;;;;;;;;;;5017886;28;20275;-49
2022/07/16 09:08:06;;;;;;;311.42;177.27;;;;;;;;;;5016733;28;20229;-49
2022/07/16 09:10:35;;;;;;;272.08;152.55;;;;;;;;;;5016527;28;20640;-49
2022/07/16 09:13:02;;;;;;;280.70;161.95;;;;;;;;;;5018040;28;20601;-50
2022/07/16 09:15:38;;;;;;;295.45;173.55;;;;;;;;;;5017380;28;20184;-50
2022/07/16 09:18:23;;;;;;;275.63;164.65;;;;;;;;;;4998235;28;20289;-49
2022/07/16 09:20:54;;;;;;;303.55;171.35;;;;;;;;;;5017962;28;20267;-50
2022/07/16 09:23:29;;;;;;;338.92;189.85;;;;;;;;;;5016324;28;20228;-50
2022/07/16 09:25:55;;;;;;;311.10;173.57;;;;;;;;;;5014893;28;20220;-49
2022/07/16 09:28:22;;;;;;;299.92;174.50;;;;;;;;;;5014987;28;20255;-49
2022/07/16 09:30:48;;;;;;;317.52;178.85;;;;;;;;;;5016442;28;20524;-49
2022/07/16 09:33:16;;;;;;;325.23;173.10;;;;;;;;;;5015060;28;20562;-49
2022/07/16 09:35:42;;;;;;;299.42;164.20;;;;;;;;;;5016820;28;20225;-49
2022/07/16 09:38:09;;;;;;;302.25;169.20;;;;;;;;;;5015430;28;20283;-49
2022/07/16 09:40:36;;;;;;;318.98;176.43;;;;;;;;;;5014996;28;20235;-50
2022/07/16 09:43:03;;;;;;;309.20;172.93;;;;;;;;;;5016197;28;20216;-49
2022/07/16 09:45:29;;;;;;;307.88;171.43;;;;;;;;;;5017488;28;20621;-50
2022/07/16 09:47:56;;;;;;;338.00;183.27;;;;;;;;;;5014498;28;20236;-50
2022/07/16 09:50:22;;;;;;;306.73;177.10;;;;;;;;;;5016300;28;20689;-49
2022/07/16 09:52:48;;;;;;;307.85;177.27;;;;;;;;;;5016527;28;20229;-50
2022/07/16 09:55:14;;;;;;;316.37;188.07;;;;;;;;;;5016191;28;20251;-50
2022/07/16 09:57:41;;;;;;;330.77;195.07;;;;;;;;;;5015560;28;20654;-49
2022/07/16 10:00:08;;;;;;;302.15;177.63;;;;;;;;;;5013212;28;20614;-50
2022/07/16 10:02:34;;;;;;;300.33;183.77;;;;;;;;;;5017284;28;20229;-49
2022/07/16 10:05:01;;;;;;;296.20;175.30;;;;;;;;;;5015272;28;20225;-49
2022/07/16 10:07:27;;;;;;;312.65;188.65;;;;;;;;;;5017002;28;20260;-49
2022/07/16 10:09:52;;;;;;;309.92;184.80;;;;;;;;;;5014418;28;20220;-49
2022/07/16 10:12:20;;;;;;;316.20;183.55;;;;;;;;;;5017695;28;20184;-49
2022/07/16 10:14:50;;;;;;;315.15;183.18;;;;;;;;;;5016543;28;20217;-49
2022/07/16 10:17:21;;;;;;;332.85;188.27;;;;;;;;;;5015259;28;20228;-50
2022/07/16 10:19:56;;;;;;;297.77;172.00;;;;;;;;;;5015639;28;20678;-49
2022/07/16 10:22:27;;;;;;;323.02;182.43;;;;;;;;;;5016328;28;20220;-49
2022/07/16 10:24:54;;;;;;;331.73;188.10;;;;;;;;;;5015529;28;20213;-49
2022/07/16 10:27:24;;;;;;;311.65;185.27;;;;;;;;;;5014587;28;20204;-49
2022/07/16 10:29:50;;;;;;;321.60;185.82;;;;;;;;;;5017322;28;20173;-50
2022/07/16 10:32:37;;;;;;;337.15;185.88;;;;;;;;;;5016218;28;20279;-50
2022/07/16 10:35:02;;;;;;;374.17;207.18;;;;;;;;;;5013165;28;20225;-49
2022/07/16 10:37:33;;;;;;;336.38;195.40;;;;;;;;;;5012731;28;20541;-49
2022/07/16 10:40:00;;;;;;;346.55;190.90;;;;;;;;;;5013676;28;20224;-50
2022/07/16 10:42:27;;;;;;;330.73;186.93;;;;;;;;;;5016503;28;20646;-50
2022/07/16 10:44:53;;;;;;;314.25;177.50;;;;;;;;;;5016943;28;20212;-50
2022/07/16 10:47:20;;;;;;;322.83;180.55;;;;;;;;;;5015687;28;20391;-50
2022/07/16 10:49:46;;;;;;;311.08;173.10;;;;;;;;;;5017579;28;20229;-50
2022/07/16 10:52:18;;;;;;;331.38;183.35;;;;;;;;;;5015778;28;20844;-50
2022/07/16 10:54:50;;;;;;;307.25;170.27;;;;;;;;;;5017853;28;20232;-50
2022/07/16 10:57:16;;;;;;;324.75;186.02;;;;;;;;;;5018438;28;20216;-50
2022/07/16 10:59:43;;;;;;;315.05;179.35;;;;;;;;;;5017421;28;20225;-50
2022/07/16 11:02:11;;;;;;;312.40;172.75;;;;;;;;;;5017579;28;20522;-50
2022/07/16 11:04:38;;;;;;;334.90;183.05;;;;;;;;;;5017558;28;20225;-50
2022/07/16 11:07:09;;;;;;;351.23;186.65;;;;;;;;;;5015528;28;20231;-50
2022/07/16 11:09:38;;;;;;;359.17;190.50;;;;;;;;;;5014824;28;20173;-50
2022/07/16 11:12:08;;;;;;;354.98;189.13;;;;;;;;;;5015542;28;20176;-50
2022/07/16 11:14:35;;;;;;;350.30;185.65;;;;;;;;;;5014734;28;20220;-50
2022/07/16 11:17:01;;;;;;;348.15;182.02;;;;;;;;;;5014862;28;20312;-50
2022/07/16 11:19:27;;;;;;;361.83;189.82;;;;;;;;;;5015015;28;20231;-50
2022/07/16 11:21:54;;;;;;;336.13;178.43;;;;;;;;;;5016692;28;20228;-50
2022/07/16 11:24:20;;;;;;;326.45;175.23;;;;;;;;;;5017954;28;20499;-50
2022/07/16 11:26:48;;;;;;;377.50;199.07;;;;;;;;;;5016635;28;20216;-50
2022/07/16 11:29:13;;;;;;;356.58;190.35;;;;;;;;;;5012052;28;20232;-53
2022/07/16 11:31:39;;;;;;;358.63;195.93;;;;;;;;;;5014414;28;20236;-50
2022/07/16 11:34:07;;;;;;;355.40;200.55;;;;;;;;;;5014475;28;20224;-50
2022/07/16 11:36:34;;;;;;;360.83;202.48;;;;;;;;;;5016202;28;20684;-50
2022/07/16 11:39:03;;;;;;;362.98;206.02;;;;;;;;;;5016100;28;20477;-50
2022/07/16 11:41:30;;;;;;;380.77;205.60;;;;;;;;;;5014075;28;20553;-50
2022/07/16 11:43:56;;;;;;;336.92;185.38;;;;;;;;;;5014905;28;20235;-50
2022/07/16 11:46:24;;;;;;;352.27;201.40;;;;;;;;;;5016399;28;20237;-50
2022/07/16 11:48:50;;;;;;;371.70;205.18;;;;;;;;;;5015214;28;20216;-50
2022/07/16 11:51:16;;;;;;;383.13;214.20;;;;;;;;;;5014109;28;20668;-50
2022/07/16 11:53:42;;;;;;;375.95;212.05;;;;;;;;;;5014108;28;20232;-50
2022/07/16 11:56:08;;;;;;;383.63;207.75;;;;;;;;;;5014299;28;20221;-50
2022/07/16 11:58:34;;;;;;;343.23;185.13;;;;;;;;;;5015029;28;20612;-50
2022/07/16 12:01:00;;;;;;;342.25;191.13;;;;;;;;;;5016581;28;20224;-51
2022/07/16 12:03:26;;;;;;;344.02;194.52;;;;;;;;;;5016884;28;20173;-51
2022/07/16 12:06:05;;;;;;;350.42;192.57;;;;;;;;;;5016327;28;20212;-51
2022/07/16 12:08:32;;;;;;;358.10;196.48;;;;;;;;;;5016405;28;20229;-50
2022/07/16 12:11:02;;;;;;;344.88;203.52;;;;;;;;;;5016372;28;20217;-50
2022/07/16 12:13:28;;;;;;;352.13;199.55;;;;;;;;;;5016704;28;20232;-50
2022/07/16 12:15:55;;;;;;;356.15;210.98;;;;;;;;;;5016087;28;20223;-51
2022/07/16 12:18:23;;;;;;;382.10;219.20;;;;;;;;;;5014771;28;20177;-50
2022/07/16 12:20:49;;;;;;;383.38;221.55;;;;;;;;;;5013625;28;20219;-50
2022/07/16 12:23:30;;;;;;;363.40;203.32;;;;;;;;;;5013587;28;20225;-50
2022/07/16 12:26:01;;;;;;;351.65;199.93;;;;;;;;;;5013281;28;20228;-50
2022/07/16 12:28:27;;;;;;;365.88;197.27;;;;;;;;;;5013530;28;20240;-50
2022/07/16 12:30:57;;;;;;;367.38;200.50;;;;;;;;;;5013496;28;20224;-51
2022/07/16 12:33:26;;;;;;;375.98;205.27;;;;;;;;;;5013091;28;20182;-51
2022/07/16 12:35:54;;;;;;;385.13;219.57;;;;;;;;;;5012964;28;20213;-51
2022/07/16 12:38:38;;;;;;;349.83;194.32;;;;;;;;;;5015058;28;20711;-50
2022/07/16 12:41:09;;;;;;;353.65;206.30;;;;;;;;;;5014762;28;20221;-50
2022/07/16 12:43:35;;;;;;;347.35;197.50;;;;;;;;;;5015937;28;20216;-50
2022/07/16 12:46:01;;;;;;;348.48;197.30;;;;;;;;;;5015622;28;20227;-50
2022/07/16 12:48:30;;;;;;;351.88;203.65;;;;;;;;;;5014694;28;20531;-50
2022/07/16 12:50:56;;;;;;;336.95;191.45;;;;;;;;;;5013555;28;20228;-51
2022/07/16 12:53:22;;;;;;;361.65;195.80;;;;;;;;;;5013755;28;20229;-50
2022/07/16 12:58:48;;;;;;;345.90;188.38;;;;;;;;;;5014888;28;20331;-50
2022/07/16 13:01:15;;;;;;;352.08;189.63;;;;;;;;;;5015478;28;20225;-50
2022/07/16 13:03:42;;;;;;;382.95;209.48;;;;;;;;;;5014552;28;20227;-50
2022/07/16 13:06:08;;;;;;;337.48;191.30;;;;;;;;;;5015648;28;20271;-51
2022/07/16 13:08:36;;;;;;;338.17;193.38;;;;;;;;;;5015898;28;20492;-50
2022/07/16 13:11:02;;;;;;;352.27;208.75;;;;;;;;;;5015709;28;20248;-51
2022/07/16 13:13:28;;;;;;;339.88;192.65;;;;;;;;;;5015757;28;20224;-51
2022/07/16 13:15:54;;;;;;;354.92;197.45;;;;;;;;;;5015134;28;20240;-51
2022/07/16 13:18:20;;;;;;;363.33;202.15;;;;;;;;;;5015848;28;20169;-51
2022/07/16 13:20:47;;;;;;;361.05;206.38;;;;;;;;;;5015373;28;20209;-50
2022/07/16 13:23:13;;;;;;;356.05;208.52;;;;;;;;;;5014457;28;20697;-50
2022/07/16 13:25:39;;;;;;;354.42;207.55;;;;;;;;;;5013301;28;20247;-51
2022/07/16 13:28:05;;;;;;;392.27;223.48;;;;;;;;;;5012877;28;21021;-50
2022/07/16 13:30:31;;;;;;;367.13;209.52;;;;;;;;;;5013202;28;20235;-51
2022/07/16 13:32:57;;;;;;;348.38;202.02;;;;;;;;;;5014125;28;20178;-50
2022/07/16 13:35:23;;;;;;;361.88;216.70;;;;;;;;;;5015271;28;20229;-51
2022/07/16 13:37:49;;;;;;;337.27;204.77;;;;;;;;;;5015217;28;20735;-51
2022/07/16 13:40:15;;;;;;;355.40;203.15;;;;;;;;;;5015252;28;20224;-51
2022/07/16 13:42:41;;;;;;;347.25;194.40;;;;;;;;;;5015283;28;20294;-51
2022/07/16 13:45:08;;;;;;;329.02;186.88;;;;;;;;;;5018412;28;20173;-51
2022/07/16 13:47:36;;;;;;;351.60;203.32;;;;;;;;;;5018760;28;20229;-50
2022/07/16 13:50:02;;;;;;;348.00;205.30;;;;;;;;;;5019065;28;20220;-50
2022/07/16 13:52:28;;;;;;;356.33;204.95;;;;;;;;;;5018599;28;20228;-50
2022/07/16 13:54:54;;;;;;;350.73;204.77;;;;;;;;;;5019481;28;20225;-50
2022/07/16 14:00:05;;;;;;;344.98;201.32;;;;;;;;;;5018996;28;20200;-50